Oregon State Flying Club

The Oregon State Flying Club is a non-profit organization committed to providing safe and inexpensive flying to the Oregon State University and Linn-Benton Community College communities. The Club currently owns three aircraft based at the Corvallis Airport for training, travel, and recreational purposes. Founded in 1952 and incorporated in 1956 the OSFC is one of the oldest continuously active flying clubs in the United States.

News & Announcements

Monthly Board Meeting

Next Meeting: Wednesday, December 17, 6pm location TBD

Current METAR KCVO

Raw METAR:  KCVO 261955Z AUTO 18007KT 10SM CLR 14/10 A3016 RMK AO1

This is a report for Corvallis Municipal Automatic Weather Observing / Reporting System, United States. The report was made a moment ago, at 19:55 UTC. The wind was blowing at a speed of 8.1 miles per hour (3.6 meters per second) from south (180°). The temperature was 57 °F (14 °C), with a dew-point at 50 °F (10 °C). The atmospheric pressure was 30.16 inHg (1021 hPa). The relative humidity was 76.8%. The sky was clear. The overall visibility was 10.0 miles (16.1 kilometers).